sensor_id;sensor_type;location;lat;lon;timestamp;P1;durP1;ratioP1;P2;durP2;ratioP2
31728;SDS011;18309;43.658;1.312;2023-09-30T00:02:11;18.55;;;5.95;;
31728;SDS011;18309;43.658;1.312;2023-09-30T00:04:37;28.55;;;7.13;;
31728;SDS011;18309;43.658;1.312;2023-09-30T00:07:03;18.67;;;6.95;;
31728;SDS011;18309;43.658;1.312;2023-09-30T00:09:30;21.05;;;6.40;;
31728;SDS011;18309;43.658;1.312;2023-09-30T00:11:56;19.63;;;5.63;;
31728;SDS011;18309;43.658;1.312;2023-09-30T00:14:22;27.30;;;7.72;;
31728;SDS011;18309;43.658;1.312;2023-09-30T00:16:48;17.60;;;5.90;;
31728;SDS011;18309;43.658;1.312;2023-09-30T00:19:14;18.88;;;6.10;;
31728;SDS011;18309;43.658;1.312;2023-09-30T00:21:39;21.17;;;7.45;;
31728;SDS011;18309;43.658;1.312;2023-09-30T00:24:05;16.42;;;6.35;;
31728;SDS011;18309;43.658;1.312;2023-09-30T00:26:31;23.63;;;6.20;;
31728;SDS011;18309;43.658;1.312;2023-09-30T00:28:57;19.48;;;6.50;;
31728;SDS011;18309;43.658;1.312;2023-09-30T00:31:22;17.60;;;6.32;;
31728;SDS011;18309;43.658;1.312;2023-09-30T00:33:48;24.83;;;6.43;;
31728;SDS011;18309;43.658;1.312;2023-09-30T00:36:15;18.77;;;5.97;;
31728;SDS011;18309;43.658;1.312;2023-09-30T00:38:41;22.80;;;7.45;;
31728;SDS011;18309;43.658;1.312;2023-09-30T00:41:08;22.05;;;6.55;;
31728;SDS011;18309;43.658;1.312;2023-09-30T00:43:34;17.40;;;5.82;;
31728;SDS011;18309;43.658;1.312;2023-09-30T00:48:37;19.98;;;6.28;;
31728;SDS011;18309;43.658;1.312;2023-09-30T00:51:04;21.08;;;6.72;;
31728;SDS011;18309;43.658;1.312;2023-09-30T00:53:30;20.58;;;6.40;;
31728;SDS011;18309;43.658;1.312;2023-09-30T00:55:56;22.52;;;6.55;;
31728;SDS011;18309;43.658;1.312;2023-09-30T00:58:24;22.70;;;6.60;;
31728;SDS011;18309;43.658;1.312;2023-09-30T01:00:53;20.10;;;6.10;;
31728;SDS011;18309;43.658;1.312;2023-09-30T01:03:21;20.65;;;5.65;;
31728;SDS011;18309;43.658;1.312;2023-09-30T01:05:48;22.33;;;6.30;;
31728;SDS011;18309;43.658;1.312;2023-09-30T01:08:14;20.40;;;6.25;;
31728;SDS011;18309;43.658;1.312;2023-09-30T01:10:41;20.77;;;6.82;;
31728;SDS011;18309;43.658;1.312;2023-09-30T01:13:07;23.55;;;6.10;;
31728;SDS011;18309;43.658;1.312;2023-09-30T01:15:33;21.05;;;6.45;;
31728;SDS011;18309;43.658;1.312;2023-09-30T01:17:59;22.20;;;6.53;;
31728;SDS011;18309;43.658;1.312;2023-09-30T01:20:25;22.65;;;6.68;;
31728;SDS011;18309;43.658;1.312;2023-09-30T01:22:52;23.88;;;6.55;;
31728;SDS011;18309;43.658;1.312;2023-09-30T01:25:19;22.92;;;6.47;;
31728;SDS011;18309;43.658;1.312;2023-09-30T01:27:45;20.02;;;6.07;;
31728;SDS011;18309;43.658;1.312;2023-09-30T01:30:10;21.85;;;7.15;;
31728;SDS011;18309;43.658;1.312;2023-09-30T01:32:38;28.70;;;6.07;;
31728;SDS011;18309;43.658;1.312;2023-09-30T01:35:04;19.73;;;6.18;;
31728;SDS011;18309;43.658;1.312;2023-09-30T01:37:31;18.30;;;6.22;;
31728;SDS011;18309;43.658;1.312;2023-09-30T01:39:57;18.48;;;6.03;;
31728;SDS011;18309;43.658;1.312;2023-09-30T01:42:22;20.13;;;6.13;;
31728;SDS011;18309;43.658;1.312;2023-09-30T01:44:48;30.63;;;7.05;;
31728;SDS011;18309;43.658;1.312;2023-09-30T01:47:14;20.30;;;7.18;;
31728;SDS011;18309;43.658;1.312;2023-09-30T01:49:39;23.33;;;6.20;;
31728;SDS011;18309;43.658;1.312;2023-09-30T01:52:05;18.90;;;5.90;;
31728;SDS011;18309;43.658;1.312;2023-09-30T01:54:30;19.92;;;6.45;;
31728;SDS011;18309;43.658;1.312;2023-09-30T01:56:56;23.80;;;6.55;;
31728;SDS011;18309;43.658;1.312;2023-09-30T01:59:24;17.25;;;6.47;;
31728;SDS011;18309;43.658;1.312;2023-09-30T02:01:49;21.38;;;5.68;;
31728;SDS011;18309;43.658;1.312;2023-09-30T02:04:15;23.67;;;6.88;;
31728;SDS011;18309;43.658;1.312;2023-09-30T02:06:42;24.50;;;6.53;;
31728;SDS011;18309;43.658;1.312;2023-09-30T02:09:09;33.28;;;6.93;;
31728;SDS011;18309;43.658;1.312;2023-09-30T02:11:36;22.05;;;6.53;;
31728;SDS011;18309;43.658;1.312;2023-09-30T02:14:02;17.67;;;6.00;;
31728;SDS011;18309;43.658;1.312;2023-09-30T02:16:28;28.98;;;6.72;;
31728;SDS011;18309;43.658;1.312;2023-09-30T02:18:54;25.35;;;6.65;;
31728;SDS011;18309;43.658;1.312;2023-09-30T02:21:20;22.10;;;6.20;;
31728;SDS011;18309;43.658;1.312;2023-09-30T02:23:47;22.75;;;6.05;;
31728;SDS011;18309;43.658;1.312;2023-09-30T02:26:20;22.20;;;6.38;;
31728;SDS011;18309;43.658;1.312;2023-09-30T02:28:46;18.15;;;5.85;;
31728;SDS011;18309;43.658;1.312;2023-09-30T02:31:12;23.17;;;6.32;;
31728;SDS011;18309;43.658;1.312;2023-09-30T02:33:38;23.05;;;6.60;;
31728;SDS011;18309;43.658;1.312;2023-09-30T02:36:07;27.00;;;6.88;;
31728;SDS011;18309;43.658;1.312;2023-09-30T02:38:34;20.43;;;6.37;;
31728;SDS011;18309;43.658;1.312;2023-09-30T02:41:03;22.52;;;6.25;;
31728;SDS011;18309;43.658;1.312;2023-09-30T02:43:29;18.42;;;5.22;;
31728;SDS011;18309;43.658;1.312;2023-09-30T02:45:54;22.20;;;6.28;;
31728;SDS011;18309;43.658;1.312;2023-09-30T02:48:20;18.13;;;6.32;;
31728;SDS011;18309;43.658;1.312;2023-09-30T02:50:46;18.85;;;6.47;;
31728;SDS011;18309;43.658;1.312;2023-09-30T02:53:12;17.90;;;6.53;;
31728;SDS011;18309;43.658;1.312;2023-09-30T02:55:38;18.77;;;6.47;;
31728;SDS011;18309;43.658;1.312;2023-09-30T02:58:06;24.05;;;6.75;;
31728;SDS011;18309;43.658;1.312;2023-09-30T03:00:33;25.98;;;6.28;;
31728;SDS011;18309;43.658;1.312;2023-09-30T03:03:00;28.88;;;7.32;;
31728;SDS011;18309;43.658;1.312;2023-09-30T03:05:29;18.38;;;5.47;;
31728;SDS011;18309;43.658;1.312;2023-09-30T03:07:58;24.77;;;5.90;;
31728;SDS011;18309;43.658;1.312;2023-09-30T03:10:27;19.90;;;5.53;;
31728;SDS011;18309;43.658;1.312;2023-09-30T03:12:53;23.08;;;6.78;;
31728;SDS011;18309;43.658;1.312;2023-09-30T03:15:19;24.10;;;6.53;;
31728;SDS011;18309;43.658;1.312;2023-09-30T03:17:45;20.02;;;6.65;;
31728;SDS011;18309;43.658;1.312;2023-09-30T03:20:11;19.60;;;5.30;;
31728;SDS011;18309;43.658;1.312;2023-09-30T03:22:39;18.50;;;5.60;;
31728;SDS011;18309;43.658;1.312;2023-09-30T03:25:06;21.85;;;6.35;;
31728;SDS011;18309;43.658;1.312;2023-09-30T03:27:33;19.85;;;6.43;;
31728;SDS011;18309;43.658;1.312;2023-09-30T03:29:59;19.88;;;5.80;;
31728;SDS011;18309;43.658;1.312;2023-09-30T03:32:26;22.77;;;6.10;;
31728;SDS011;18309;43.658;1.312;2023-09-30T03:34:53;24.92;;;6.60;;
31728;SDS011;18309;43.658;1.312;2023-09-30T03:37:18;21.20;;;7.07;;
31728;SDS011;18309;43.658;1.312;2023-09-30T03:39:44;26.35;;;6.20;;
31728;SDS011;18309;43.658;1.312;2023-09-30T03:42:14;21.55;;;6.50;;
31728;SDS011;18309;43.658;1.312;2023-09-30T03:44:39;23.02;;;5.93;;
31728;SDS011;18309;43.658;1.312;2023-09-30T03:47:06;21.17;;;6.50;;
31728;SDS011;18309;43.658;1.312;2023-09-30T03:49:33;22.33;;;6.40;;
31728;SDS011;18309;43.658;1.312;2023-09-30T03:51:59;24.83;;;6.25;;
31728;SDS011;18309;43.658;1.312;2023-09-30T03:54:25;20.92;;;6.63;;
31728;SDS011;18309;43.658;1.312;2023-09-30T03:56:52;20.70;;;7.05;;
31728;SDS011;18309;43.658;1.312;2023-09-30T03:59:17;23.40;;;6.75;;
31728;SDS011;18309;43.658;1.312;2023-09-30T04:01:44;23.27;;;6.68;;
31728;SDS011;18309;43.658;1.312;2023-09-30T04:04:11;17.10;;;6.55;;
31728;SDS011;18309;43.658;1.312;2023-09-30T04:06:36;19.75;;;6.10;;
31728;SDS011;18309;43.658;1.312;2023-09-30T04:09:05;23.98;;;7.10;;
31728;SDS011;18309;43.658;1.312;2023-09-30T04:11:37;29.25;;;6.80;;
31728;SDS011;18309;43.658;1.312;2023-09-30T04:14:04;20.23;;;6.55;;
31728;SDS011;18309;43.658;1.312;2023-09-30T04:16:33;17.70;;;5.78;;
31728;SDS011;18309;43.658;1.312;2023-09-30T04:18:59;20.45;;;6.15;;
31728;SDS011;18309;43.658;1.312;2023-09-30T04:21:25;20.48;;;5.72;;
31728;SDS011;18309;43.658;1.312;2023-09-30T04:23:53;15.93;;;5.72;;
31728;SDS011;18309;43.658;1.312;2023-09-30T04:26:18;13.32;;;5.28;;
31728;SDS011;18309;43.658;1.312;2023-09-30T04:28:44;24.38;;;5.95;;
31728;SDS011;18309;43.658;1.312;2023-09-30T04:31:10;19.80;;;5.78;;
31728;SDS011;18309;43.658;1.312;2023-09-30T04:33:38;24.33;;;6.70;;
31728;SDS011;18309;43.658;1.312;2023-09-30T04:36:05;19.10;;;6.20;;
31728;SDS011;18309;43.658;1.312;2023-09-30T04:38:34;26.10;;;6.45;;
31728;SDS011;18309;43.658;1.312;2023-09-30T04:41:00;22.33;;;6.40;;
31728;SDS011;18309;43.658;1.312;2023-09-30T04:43:26;21.88;;;6.68;;
31728;SDS011;18309;43.658;1.312;2023-09-30T04:45:54;26.38;;;7.50;;
31728;SDS011;18309;43.658;1.312;2023-09-30T04:48:22;25.17;;;7.45;;
31728;SDS011;18309;43.658;1.312;2023-09-30T04:50:48;28.90;;;6.43;;
31728;SDS011;18309;43.658;1.312;2023-09-30T04:53:16;21.02;;;6.43;;
31728;SDS011;18309;43.658;1.312;2023-09-30T04:55:43;21.00;;;6.07;;
31728;SDS011;18309;43.658;1.312;2023-09-30T04:58:09;21.75;;;6.00;;
31728;SDS011;18309;43.658;1.312;2023-09-30T05:00:36;19.40;;;7.10;;
31728;SDS011;18309;43.658;1.312;2023-09-30T05:03:02;21.30;;;6.75;;
31728;SDS011;18309;43.658;1.312;2023-09-30T05:05:27;18.13;;;6.32;;
31728;SDS011;18309;43.658;1.312;2023-09-30T05:07:53;24.17;;;6.22;;
31728;SDS011;18309;43.658;1.312;2023-09-30T05:10:19;18.40;;;6.40;;
31728;SDS011;18309;43.658;1.312;2023-09-30T05:12:45;18.75;;;6.50;;
31728;SDS011;18309;43.658;1.312;2023-09-30T05:15:11;24.55;;;6.40;;
31728;SDS011;18309;43.658;1.312;2023-09-30T05:17:38;24.90;;;6.10;;
31728;SDS011;18309;43.658;1.312;2023-09-30T05:20:05;24.33;;;6.28;;
31728;SDS011;18309;43.658;1.312;2023-09-30T05:22:32;17.25;;;5.82;;
31728;SDS011;18309;43.658;1.312;2023-09-30T05:24:59;18.50;;;6.10;;
31728;SDS011;18309;43.658;1.312;2023-09-30T05:27:25;17.13;;;5.40;;
31728;SDS011;18309;43.658;1.312;2023-09-30T05:29:52;21.05;;;6.25;;
31728;SDS011;18309;43.658;1.312;2023-09-30T05:32:18;19.70;;;6.05;;
31728;SDS011;18309;43.658;1.312;2023-09-30T05:34:43;15.43;;;6.15;;
31728;SDS011;18309;43.658;1.312;2023-09-30T05:37:09;17.08;;;5.60;;
31728;SDS011;18309;43.658;1.312;2023-09-30T05:39:35;18.67;;;6.15;;
31728;SDS011;18309;43.658;1.312;2023-09-30T05:42:00;23.65;;;6.25;;
31728;SDS011;18309;43.658;1.312;2023-09-30T05:44:26;21.15;;;6.50;;
31728;SDS011;18309;43.658;1.312;2023-09-30T05:46:52;21.73;;;5.95;;
31728;SDS011;18309;43.658;1.312;2023-09-30T05:49:18;19.15;;;5.53;;
31728;SDS011;18309;43.658;1.312;2023-09-30T05:51:44;22.02;;;6.15;;
31728;SDS011;18309;43.658;1.312;2023-09-30T05:54:11;20.42;;;6.63;;
31728;SDS011;18309;43.658;1.312;2023-09-30T05:56:37;23.73;;;6.03;;
31728;SDS011;18309;43.658;1.312;2023-09-30T05:59:04;19.10;;;5.45;;
31728;SDS011;18309;43.658;1.312;2023-09-30T06:01:30;17.88;;;6.07;;
31728;SDS011;18309;43.658;1.312;2023-09-30T06:04:01;18.67;;;6.05;;
31728;SDS011;18309;43.658;1.312;2023-09-30T06:06:27;19.15;;;6.65;;
31728;SDS011;18309;43.658;1.312;2023-09-30T06:08:56;17.70;;;5.78;;
31728;SDS011;18309;43.658;1.312;2023-09-30T06:11:23;17.80;;;6.40;;
31728;SDS011;18309;43.658;1.312;2023-09-30T06:13:56;24.52;;;6.68;;
31728;SDS011;18309;43.658;1.312;2023-09-30T06:16:28;22.00;;;5.75;;
31728;SDS011;18309;43.658;1.312;2023-09-30T06:18:56;14.27;;;5.45;;
31728;SDS011;18309;43.658;1.312;2023-09-30T06:21:23;18.27;;;6.25;;
31728;SDS011;18309;43.658;1.312;2023-09-30T06:23:53;27.42;;;6.28;;
31728;SDS011;18309;43.658;1.312;2023-09-30T06:26:19;18.48;;;6.70;;
31728;SDS011;18309;43.658;1.312;2023-09-30T06:28:50;18.58;;;5.50;;
31728;SDS011;18309;43.658;1.312;2023-09-30T06:31:19;19.45;;;6.20;;
31728;SDS011;18309;43.658;1.312;2023-09-30T06:33:44;23.73;;;6.65;;
31728;SDS011;18309;43.658;1.312;2023-09-30T06:36:11;20.83;;;6.53;;
31728;SDS011;18309;43.658;1.312;2023-09-30T06:38:40;20.65;;;6.45;;
31728;SDS011;18309;43.658;1.312;2023-09-30T06:41:07;24.80;;;6.75;;
31728;SDS011;18309;43.658;1.312;2023-09-30T06:43:34;22.05;;;6.65;;
31728;SDS011;18309;43.658;1.312;2023-09-30T06:46:07;17.48;;;6.32;;
31728;SDS011;18309;43.658;1.312;2023-09-30T06:48:34;21.48;;;6.65;;
31728;SDS011;18309;43.658;1.312;2023-09-30T06:51:05;22.63;;;6.80;;
31728;SDS011;18309;43.658;1.312;2023-09-30T06:53:31;24.35;;;6.10;;
31728;SDS011;18309;43.658;1.312;2023-09-30T06:55:57;19.98;;;5.72;;
31728;SDS011;18309;43.658;1.312;2023-09-30T06:58:22;19.20;;;5.88;;
31728;SDS011;18309;43.658;1.312;2023-09-30T07:00:49;27.98;;;6.93;;
31728;SDS011;18309;43.658;1.312;2023-09-30T07:03:16;27.40;;;6.65;;
31728;SDS011;18309;43.658;1.312;2023-09-30T07:05:44;23.73;;;7.30;;
31728;SDS011;18309;43.658;1.312;2023-09-30T07:08:10;27.55;;;6.78;;
31728;SDS011;18309;43.658;1.312;2023-09-30T07:10:36;25.60;;;6.22;;
31728;SDS011;18309;43.658;1.312;2023-09-30T07:13:03;22.15;;;6.38;;
31728;SDS011;18309;43.658;1.312;2023-09-30T07:15:29;14.40;;;5.20;;
31728;SDS011;18309;43.658;1.312;2023-09-30T07:17:55;18.40;;;6.35;;
31728;SDS011;18309;43.658;1.312;2023-09-30T07:20:21;17.88;;;5.93;;
31728;SDS011;18309;43.658;1.312;2023-09-30T07:22:47;18.50;;;6.10;;
31728;SDS011;18309;43.658;1.312;2023-09-30T07:25:13;21.35;;;6.57;;
31728;SDS011;18309;43.658;1.312;2023-09-30T07:27:43;23.90;;;6.50;;
31728;SDS011;18309;43.658;1.312;2023-09-30T07:30:10;17.83;;;5.85;;
31728;SDS011;18309;43.658;1.312;2023-09-30T07:32:37;27.70;;;7.05;;
31728;SDS011;18309;43.658;1.312;2023-09-30T07:35:05;19.90;;;6.15;;
31728;SDS011;18309;43.658;1.312;2023-09-30T07:37:31;22.45;;;6.05;;
31728;SDS011;18309;43.658;1.312;2023-09-30T07:39:57;19.83;;;5.85;;
31728;SDS011;18309;43.658;1.312;2023-09-30T07:42:23;23.05;;;6.35;;
31728;SDS011;18309;43.658;1.312;2023-09-30T07:44:49;21.50;;;6.45;;
31728;SDS011;18309;43.658;1.312;2023-09-30T07:47:14;31.17;;;7.45;;
31728;SDS011;18309;43.658;1.312;2023-09-30T07:49:40;23.77;;;7.18;;
31728;SDS011;18309;43.658;1.312;2023-09-30T07:52:06;21.92;;;6.22;;
31728;SDS011;18309;43.658;1.312;2023-09-30T07:54:31;28.30;;;6.75;;
31728;SDS011;18309;43.658;1.312;2023-09-30T07:56:57;17.52;;;5.53;;
31728;SDS011;18309;43.658;1.312;2023-09-30T07:59:24;24.05;;;6.53;;
31728;SDS011;18309;43.658;1.312;2023-09-30T08:01:50;20.92;;;6.85;;
31728;SDS011;18309;43.658;1.312;2023-09-30T08:04:17;20.63;;;6.57;;
31728;SDS011;18309;43.658;1.312;2023-09-30T08:06:44;18.23;;;6.28;;
31728;SDS011;18309;43.658;1.312;2023-09-30T08:09:09;18.90;;;5.97;;
31728;SDS011;18309;43.658;1.312;2023-09-30T08:11:38;19.88;;;5.82;;
31728;SDS011;18309;43.658;1.312;2023-09-30T08:14:05;21.35;;;5.75;;
31728;SDS011;18309;43.658;1.312;2023-09-30T08:16:34;20.63;;;6.18;;
31728;SDS011;18309;43.658;1.312;2023-09-30T08:19:01;19.45;;;5.88;;
31728;SDS011;18309;43.658;1.312;2023-09-30T08:21:28;20.08;;;6.13;;
31728;SDS011;18309;43.658;1.312;2023-09-30T08:23:54;16.92;;;5.80;;
31728;SDS011;18309;43.658;1.312;2023-09-30T08:26:20;23.02;;;5.70;;
31728;SDS011;18309;43.658;1.312;2023-09-30T08:28:45;19.67;;;7.13;;
31728;SDS011;18309;43.658;1.312;2023-09-30T08:31:11;18.05;;;6.28;;
31728;SDS011;18309;43.658;1.312;2023-09-30T08:33:37;14.95;;;4.75;;
31728;SDS011;18309;43.658;1.312;2023-09-30T08:36:05;18.77;;;6.20;;
31728;SDS011;18309;43.658;1.312;2023-09-30T08:38:35;22.08;;;6.13;;
31728;SDS011;18309;43.658;1.312;2023-09-30T08:41:01;16.17;;;5.22;;
31728;SDS011;18309;43.658;1.312;2023-09-30T08:43:27;21.88;;;8.02;;
31728;SDS011;18309;43.658;1.312;2023-09-30T08:45:57;14.88;;;5.28;;
31728;SDS011;18309;43.658;1.312;2023-09-30T08:48:25;13.20;;;4.80;;
31728;SDS011;18309;43.658;1.312;2023-09-30T08:50:52;16.00;;;4.63;;
31728;SDS011;18309;43.658;1.312;2023-09-30T08:53:19;17.55;;;7.55;;
31728;SDS011;18309;43.658;1.312;2023-09-30T08:55:46;15.32;;;5.60;;
31728;SDS011;18309;43.658;1.312;2023-09-30T08:58:13;14.77;;;5.05;;
31728;SDS011;18309;43.658;1.312;2023-09-30T09:00:39;13.00;;;5.03;;
31728;SDS011;18309;43.658;1.312;2023-09-30T09:03:06;10.20;;;3.88;;
31728;SDS011;18309;43.658;1.312;2023-09-30T09:05:33;16.02;;;4.78;;
31728;SDS011;18309;43.658;1.312;2023-09-30T09:07:59;19.33;;;5.28;;
31728;SDS011;18309;43.658;1.312;2023-09-30T09:10:25;18.83;;;5.35;;
31728;SDS011;18309;43.658;1.312;2023-09-30T09:12:57;13.80;;;4.55;;
31728;SDS011;18309;43.658;1.312;2023-09-30T09:15:24;15.70;;;4.55;;
31728;SDS011;18309;43.658;1.312;2023-09-30T09:17:54;11.77;;;4.35;;
31728;SDS011;18309;43.658;1.312;2023-09-30T09:20:23;13.68;;;4.90;;
31728;SDS011;18309;43.658;1.312;2023-09-30T09:22:53;13.77;;;4.80;;
31728;SDS011;18309;43.658;1.312;2023-09-30T09:25:21;14.43;;;4.88;;
31728;SDS011;18309;43.658;1.312;2023-09-30T09:27:52;17.48;;;4.00;;
31728;SDS011;18309;43.658;1.312;2023-09-30T09:30:25;11.77;;;3.50;;
31728;SDS011;18309;43.658;1.312;2023-09-30T09:32:52;13.35;;;3.88;;
31728;SDS011;18309;43.658;1.312;2023-09-30T09:35:23;12.90;;;3.83;;
31728;SDS011;18309;43.658;1.312;2023-09-30T09:37:59;10.73;;;3.50;;
31728;SDS011;18309;43.658;1.312;2023-09-30T09:40:26;10.93;;;3.40;;
31728;SDS011;18309;43.658;1.312;2023-09-30T09:42:53;10.93;;;3.65;;
31728;SDS011;18309;43.658;1.312;2023-09-30T09:45:22;12.88;;;3.60;;
31728;SDS011;18309;43.658;1.312;2023-09-30T09:47:50;9.80;;;3.35;;
31728;SDS011;18309;43.658;1.312;2023-09-30T09:50:17;12.07;;;3.30;;
31728;SDS011;18309;43.658;1.312;2023-09-30T09:52:44;8.65;;;2.80;;
31728;SDS011;18309;43.658;1.312;2023-09-30T09:55:17;8.73;;;2.78;;
31728;SDS011;18309;43.658;1.312;2023-09-30T09:57:45;8.43;;;2.92;;
31728;SDS011;18309;43.658;1.312;2023-09-30T10:00:32;9.82;;;3.25;;
31728;SDS011;18309;43.658;1.312;2023-09-30T10:02:59;8.60;;;2.63;;
31728;SDS011;18309;43.658;1.312;2023-09-30T10:05:24;8.48;;;2.92;;
31728;SDS011;18309;43.658;1.312;2023-09-30T10:10:20;8.25;;;2.78;;
31728;SDS011;18309;43.658;1.312;2023-09-30T10:12:46;9.60;;;2.53;;
31728;SDS011;18309;43.658;1.312;2023-09-30T10:18:23;7.93;;;2.42;;
31728;SDS011;18309;43.658;1.312;2023-09-30T10:20:43;5.47;;;2.25;;
31728;SDS011;18309;43.658;1.312;2023-09-30T10:23:23;8.23;;;2.65;;
31728;SDS011;18309;43.658;1.312;2023-09-30T10:25:50;10.50;;;2.35;;
31728;SDS011;18309;43.658;1.312;2023-09-30T10:28:42;7.78;;;2.63;;
31728;SDS011;18309;43.658;1.312;2023-09-30T10:36:28;6.75;;;2.40;;
31728;SDS011;18309;43.658;1.312;2023-09-30T10:38:57;8.60;;;2.40;;
31728;SDS011;18309;43.658;1.312;2023-09-30T10:51:52;5.38;;;2.25;;
31728;SDS011;18309;43.658;1.312;2023-09-30T10:54:26;6.75;;;2.38;;
31728;SDS011;18309;43.658;1.312;2023-09-30T10:56:54;4.00;;;1.77;;
31728;SDS011;18309;43.658;1.312;2023-09-30T10:59:23;11.10;;;3.55;;
31728;SDS011;18309;43.658;1.312;2023-09-30T11:04:17;6.63;;;2.22;;
31728;SDS011;18309;43.658;1.312;2023-09-30T11:06:43;5.28;;;2.10;;
31728;SDS011;18309;43.658;1.312;2023-09-30T11:09:14;5.00;;;2.25;;
31728;SDS011;18309;43.658;1.312;2023-09-30T11:11:48;4.78;;;2.00;;
31728;SDS011;18309;43.658;1.312;2023-09-30T11:16:50;6.25;;;2.50;;
31728;SDS011;18309;43.658;1.312;2023-09-30T11:19:17;6.88;;;2.33;;
31728;SDS011;18309;43.658;1.312;2023-09-30T11:21:50;4.95;;;1.75;;
31728;SDS011;18309;43.658;1.312;2023-09-30T11:24:17;6.07;;;2.50;;
31728;SDS011;18309;43.658;1.312;2023-09-30T11:26:44;5.68;;;2.03;;
31728;SDS011;18309;43.658;1.312;2023-09-30T11:29:11;5.30;;;2.28;;
31728;SDS011;18309;43.658;1.312;2023-09-30T11:31:42;5.95;;;2.20;;
31728;SDS011;18309;43.658;1.312;2023-09-30T11:34:13;7.50;;;2.03;;
31728;SDS011;18309;43.658;1.312;2023-09-30T11:36:41;5.30;;;2.33;;
31728;SDS011;18309;43.658;1.312;2023-09-30T11:39:25;5.82;;;2.53;;
31728;SDS011;18309;43.658;1.312;2023-09-30T11:41:52;16.35;;;3.72;;
31728;SDS011;18309;43.658;1.312;2023-09-30T11:44:20;17.73;;;5.60;;
31728;SDS011;18309;43.658;1.312;2023-09-30T11:46:55;10.15;;;2.42;;
31728;SDS011;18309;43.658;1.312;2023-09-30T11:49:33;5.40;;;1.98;;
31728;SDS011;18309;43.658;1.312;2023-09-30T11:52:04;5.32;;;2.28;;
31728;SDS011;18309;43.658;1.312;2023-09-30T11:54:38;3.92;;;1.50;;
31728;SDS011;18309;43.658;1.312;2023-09-30T11:57:10;4.65;;;2.03;;
31728;SDS011;18309;43.658;1.312;2023-09-30T11:59:37;9.35;;;1.92;;
31728;SDS011;18309;43.658;1.312;2023-09-30T12:02:04;5.68;;;2.08;;
31728;SDS011;18309;43.658;1.312;2023-09-30T12:04:34;4.65;;;1.88;;
31728;SDS011;18309;43.658;1.312;2023-09-30T12:07:03;7.15;;;2.33;;
31728;SDS011;18309;43.658;1.312;2023-09-30T12:09:31;7.00;;;2.20;;
31728;SDS011;18309;43.658;1.312;2023-09-30T12:11:57;5.25;;;2.03;;
31728;SDS011;18309;43.658;1.312;2023-09-30T12:14:23;7.18;;;2.67;;
31728;SDS011;18309;43.658;1.312;2023-09-30T12:16:49;6.13;;;2.40;;
31728;SDS011;18309;43.658;1.312;2023-09-30T12:19:19;5.68;;;2.28;;
31728;SDS011;18309;43.658;1.312;2023-09-30T12:24:13;15.98;;;3.47;;
31728;SDS011;18309;43.658;1.312;2023-09-30T12:26:48;6.00;;;2.35;;
31728;SDS011;18309;43.658;1.312;2023-09-30T12:29:14;6.15;;;2.83;;
31728;SDS011;18309;43.658;1.312;2023-09-30T12:31:44;7.47;;;2.25;;
31728;SDS011;18309;43.658;1.312;2023-09-30T12:34:10;4.15;;;1.48;;
31728;SDS011;18309;43.658;1.312;2023-09-30T12:36:37;6.20;;;2.10;;
31728;SDS011;18309;43.658;1.312;2023-09-30T12:39:05;7.15;;;1.90;;
31728;SDS011;18309;43.658;1.312;2023-09-30T12:41:42;6.15;;;1.90;;
31728;SDS011;18309;43.658;1.312;2023-09-30T12:44:09;3.90;;;1.98;;
31728;SDS011;18309;43.658;1.312;2023-09-30T12:46:36;5.28;;;1.75;;
31728;SDS011;18309;43.658;1.312;2023-09-30T12:49:04;12.80;;;2.22;;
31728;SDS011;18309;43.658;1.312;2023-09-30T12:51:30;6.50;;;2.40;;
31728;SDS011;18309;43.658;1.312;2023-09-30T12:53:57;5.80;;;2.30;;
31728;SDS011;18309;43.658;1.312;2023-09-30T12:56:23;5.65;;;2.10;;
31728;SDS011;18309;43.658;1.312;2023-09-30T12:58:49;5.25;;;2.22;;
31728;SDS011;18309;43.658;1.312;2023-09-30T13:01:15;4.90;;;2.03;;
31728;SDS011;18309;43.658;1.312;2023-09-30T13:03:43;5.72;;;2.17;;
31728;SDS011;18309;43.658;1.312;2023-09-30T13:06:09;10.40;;;2.58;;
31728;SDS011;18309;43.658;1.312;2023-09-30T13:08:35;4.50;;;2.00;;
31728;SDS011;18309;43.658;1.312;2023-09-30T13:11:03;4.43;;;1.90;;
31728;SDS011;18309;43.658;1.312;2023-09-30T13:13:29;5.28;;;2.08;;
31728;SDS011;18309;43.658;1.312;2023-09-30T13:15:59;6.85;;;2.28;;
31728;SDS011;18309;43.658;1.312;2023-09-30T13:18:25;6.30;;;2.60;;
31728;SDS011;18309;43.658;1.312;2023-09-30T13:20:51;6.50;;;3.45;;
31728;SDS011;18309;43.658;1.312;2023-09-30T13:23:19;18.13;;;2.88;;
31728;SDS011;18309;43.658;1.312;2023-09-30T13:25:47;7.00;;;1.92;;
31728;SDS011;18309;43.658;1.312;2023-09-30T13:28:13;4.75;;;1.80;;
31728;SDS011;18309;43.658;1.312;2023-09-30T13:30:39;4.25;;;2.03;;
31728;SDS011;18309;43.658;1.312;2023-09-30T13:33:05;3.47;;;1.58;;
31728;SDS011;18309;43.658;1.312;2023-09-30T13:35:32;3.53;;;1.80;;
31728;SDS011;18309;43.658;1.312;2023-09-30T13:37:58;4.47;;;2.03;;
31728;SDS011;18309;43.658;1.312;2023-09-30T13:40:25;10.93;;;2.47;;
31728;SDS011;18309;43.658;1.312;2023-09-30T13:42:50;5.28;;;2.20;;
31728;SDS011;18309;43.658;1.312;2023-09-30T13:45:17;3.85;;;1.63;;
31728;SDS011;18309;43.658;1.312;2023-09-30T13:47:43;4.22;;;1.80;;
31728;SDS011;18309;43.658;1.312;2023-09-30T13:50:09;6.40;;;1.95;;
31728;SDS011;18309;43.658;1.312;2023-09-30T13:52:35;5.10;;;2.00;;
31728;SDS011;18309;43.658;1.312;2023-09-30T13:55:01;3.70;;;1.77;;
31728;SDS011;18309;43.658;1.312;2023-09-30T13:57:28;6.82;;;2.28;;
31728;SDS011;18309;43.658;1.312;2023-09-30T13:59:54;4.53;;;2.03;;
31728;SDS011;18309;43.658;1.312;2023-09-30T14:02:21;4.65;;;2.25;;
31728;SDS011;18309;43.658;1.312;2023-09-30T14:04:47;4.05;;;1.88;;
31728;SDS011;18309;43.658;1.312;2023-09-30T14:07:13;3.08;;;1.70;;
31728;SDS011;18309;43.658;1.312;2023-09-30T14:09:39;4.40;;;2.13;;
31728;SDS011;18309;43.658;1.312;2023-09-30T14:12:05;5.38;;;2.30;;
31728;SDS011;18309;43.658;1.312;2023-09-30T14:14:34;3.40;;;1.70;;
31728;SDS011;18309;43.658;1.312;2023-09-30T14:17:00;3.25;;;1.75;;
31728;SDS011;18309;43.658;1.312;2023-09-30T14:19:32;5.05;;;2.03;;
31728;SDS011;18309;43.658;1.312;2023-09-30T14:21:58;8.90;;;2.08;;
31728;SDS011;18309;43.658;1.312;2023-09-30T14:24:24;5.60;;;1.83;;
31728;SDS011;18309;43.658;1.312;2023-09-30T14:26:50;7.93;;;1.83;;
31728;SDS011;18309;43.658;1.312;2023-09-30T14:29:15;6.43;;;1.73;;
31728;SDS011;18309;43.658;1.312;2023-09-30T14:31:41;6.70;;;2.10;;
31728;SDS011;18309;43.658;1.312;2023-09-30T14:34:07;4.40;;;2.05;;
31728;SDS011;18309;43.658;1.312;2023-09-30T14:36:32;4.93;;;1.83;;
31728;SDS011;18309;43.658;1.312;2023-09-30T14:38:59;7.50;;;1.80;;
31728;SDS011;18309;43.658;1.312;2023-09-30T14:41:25;3.33;;;1.70;;
31728;SDS011;18309;43.658;1.312;2023-09-30T14:43:50;2.72;;;1.55;;
31728;SDS011;18309;43.658;1.312;2023-09-30T14:46:16;4.57;;;1.77;;
31728;SDS011;18309;43.658;1.312;2023-09-30T14:48:42;2.15;;;1.50;;
31728;SDS011;18309;43.658;1.312;2023-09-30T14:51:08;3.72;;;1.50;;
31728;SDS011;18309;43.658;1.312;2023-09-30T14:53:36;4.90;;;1.80;;
31728;SDS011;18309;43.658;1.312;2023-09-30T14:56:01;2.95;;;1.48;;
31728;SDS011;18309;43.658;1.312;2023-09-30T14:58:27;9.60;;;1.85;;
31728;SDS011;18309;43.658;1.312;2023-09-30T15:00:53;2.47;;;1.33;;
31728;SDS011;18309;43.658;1.312;2023-09-30T15:03:19;4.43;;;1.63;;
31728;SDS011;18309;43.658;1.312;2023-09-30T15:05:46;3.95;;;2.08;;
31728;SDS011;18309;43.658;1.312;2023-09-30T15:08:14;3.05;;;1.63;;
31728;SDS011;18309;43.658;1.312;2023-09-30T15:10:40;3.05;;;1.58;;